Time;durP1;ratioP1;P1;durP2;ratioP2;P2;SDS_P1;SDS_P2;PMS_P1;PMS_P2;Temp;Humidity;BMP_temperature;BMP_pressure;BME280_temperature;BME280_humidity;BME280_pressure;Samples;Min_cycle;Max_cycle;Signal;HPM_P1;HPM_P2
2022/12/28 00:01:08;;;;;;;9.02;3.45;;;;;;;;;;5046679;28;20041;-84
2022/12/28 00:03:34;;;;;;;12.73;3.88;;;;;;;;;;5023189;28;20036;-82
2022/12/28 00:06:00;;;;;;;12.80;4.63;;;;;;;;;;5024877;28;20025;-84
2022/12/28 00:08:25;;;;;;;7.30;3.72;;;;;;;;;;5034251;28;20045;-81
2022/12/28 00:10:50;;;;;;;6.55;3.15;;;;;;;;;;5052374;28;20055;-84
2022/12/28 00:13:16;;;;;;;5.95;3.30;;;;;;;;;;5046796;28;20045;-83
2022/12/28 00:15:41;;;;;;;9.18;3.90;;;;;;;;;;5043035;28;20025;-83
2022/12/28 00:18:06;;;;;;;9.68;4.40;;;;;;;;;;5020725;28;20160;-84
2022/12/28 00:20:32;;;;;;;6.55;3.28;;;;;;;;;;5037728;28;20045;-83
2022/12/28 00:22:57;;;;;;;6.03;2.65;;;;;;;;;;5028119;28;20156;-84
2022/12/28 00:25:22;;;;;;;8.35;3.90;;;;;;;;;;5045647;28;20140;-84
2022/12/28 00:27:48;;;;;;;7.18;3.67;;;;;;;;;;5045892;28;20036;-84
2022/12/28 00:30:13;;;;;;;10.10;4.05;;;;;;;;;;5045821;28;20469;-83
2022/12/28 00:32:38;;;;;;;7.22;3.47;;;;;;;;;;5046529;28;20013;-84
2022/12/28 00:35:04;;;;;;;5.55;3.38;;;;;;;;;;5028014;28;20052;-84
2022/12/28 00:37:31;;;;;;;7.80;3.33;;;;;;;;;;5027590;28;20091;-84
2022/12/28 00:39:57;;;;;;;6.15;3.50;;;;;;;;;;5046212;28;20132;-84
2022/12/28 00:42:22;;;;;;;7.28;3.50;;;;;;;;;;5045058;28;20395;-84
2022/12/28 00:44:48;;;;;;;7.45;3.50;;;;;;;;;;5046384;28;20434;-84
2022/12/28 00:47:13;;;;;;;5.10;2.70;;;;;;;;;;5023940;28;20090;-83
2022/12/28 00:49:38;;;;;;;8.07;3.45;;;;;;;;;;5030662;28;20029;-84
2022/12/28 00:52:04;;;;;;;7.75;3.40;;;;;;;;;;5046115;28;20445;-84
2022/12/28 00:54:29;;;;;;;10.00;3.67;;;;;;;;;;5045679;28;20083;-84
2022/12/28 00:56:54;;;;;;;6.90;3.42;;;;;;;;;;5039438;28;20384;-83
2022/12/28 00:59:20;;;;;;;7.85;3.38;;;;;;;;;;5028667;28;20551;-83
2022/12/28 01:01:45;;;;;;;6.45;3.50;;;;;;;;;;5049708;28;20413;-83
2022/12/28 01:04:10;;;;;;;8.73;3.90;;;;;;;;;;5045443;28;20475;-83
2022/12/28 01:06:36;;;;;;;7.80;3.47;;;;;;;;;;5018436;28;20068;-84
2022/12/28 01:09:01;;;;;;;5.60;3.20;;;;;;;;;;5039061;28;20029;-83
2022/12/28 01:11:29;;;;;;;7.35;3.20;;;;;;;;;;5045284;28;20943;-84
2022/12/28 01:13:58;;;;;;;6.90;3.67;;;;;;;;;;5044034;28;20037;-84
2022/12/28 01:16:26;;;;;;;6.22;3.00;;;;;;;;;;5048466;28;20041;-84
2022/12/28 01:18:54;;;;;;;6.65;3.65;;;;;;;;;;5045079;28;20051;-84
2022/12/28 01:21:22;;;;;;;6.63;3.38;;;;;;;;;;5048544;28;20045;-84
2022/12/28 01:23:52;;;;;;;8.65;3.22;;;;;;;;;;5028486;28;20048;-84
2022/12/28 01:26:18;;;;;;;5.72;3.13;;;;;;;;;;5033393;28;20040;-83
2022/12/28 01:28:43;;;;;;;7.45;3.35;;;;;;;;;;5031082;28;20035;-83
2022/12/28 01:31:10;;;;;;;6.18;3.22;;;;;;;;;;5046614;28;20249;-83
2022/12/28 01:33:36;;;;;;;5.68;3.15;;;;;;;;;;5022521;28;20043;-83
2022/12/28 01:36:16;;;;;;;5.82;2.90;;;;;;;;;;5046873;28;20021;-83
2022/12/28 01:38:43;;;;;;;9.05;3.88;;;;;;;;;;5049519;28;20517;-83
2022/12/28 01:41:10;;;;;;;6.53;3.42;;;;;;;;;;5042456;28;20041;-83
2022/12/28 01:43:44;;;;;;;7.38;4.18;;;;;;;;;;5027452;28;20926;-83
2022/12/28 01:46:20;;;;;;;5.82;3.17;;;;;;;;;;5049177;28;20120;-84
2022/12/28 01:48:58;;;;;;;7.68;3.15;;;;;;;;;;5025397;28;20037;-83
2022/12/28 01:51:25;;;;;;;6.78;2.88;;;;;;;;;;5034000;28;20761;-83
2022/12/28 01:53:53;;;;;;;4.07;2.47;;;;;;;;;;5048973;28;20651;-83
2022/12/28 01:56:19;;;;;;;7.10;3.70;;;;;;;;;;5022692;28;20045;-84
2022/12/28 01:58:45;;;;;;;6.60;3.60;;;;;;;;;;5013609;28;20112;-84
2022/12/28 02:01:11;;;;;;;7.57;3.85;;;;;;;;;;5047260;28;20056;-83
2022/12/28 02:03:36;;;;;;;6.07;3.40;;;;;;;;;;5047727;28;20028;-84
2022/12/28 02:06:07;;;;;;;8.93;3.05;;;;;;;;;;5031026;28;20079;-83
2022/12/28 02:08:55;;;;;;;8.18;3.72;;;;;;;;;;5047322;28;20036;-83
2022/12/28 02:11:21;;;;;;;5.72;2.72;;;;;;;;;;5030409;28;20650;-83
2022/12/28 02:13:48;;;;;;;5.85;3.35;;;;;;;;;;5047906;28;20056;-84
2022/12/28 02:16:14;;;;;;;6.90;2.97;;;;;;;;;;5037221;28;20044;-82
2022/12/28 02:18:42;;;;;;;6.65;3.15;;;;;;;;;;5033196;28;20145;-79
2022/12/28 02:21:36;;;;;;;6.47;3.20;;;;;;;;;;5041015;28;20032;-83
2022/12/28 02:24:23;;;;;;;4.82;2.38;;;;;;;;;;5048921;28;20481;-84
2022/12/28 02:27:26;;;;;;;4.65;2.60;;;;;;;;;;5046632;28;20063;-83
2022/12/28 02:30:01;;;;;;;5.70;2.40;;;;;;;;;;4936935;28;20039;-84
2022/12/28 02:33:04;;;;;;;6.55;2.75;;;;;;;;;;4950666;28;20186;-83
2022/12/28 02:35:52;;;;;;;4.70;2.83;;;;;;;;;;5030054;28;20057;-83
2022/12/28 02:38:41;;;;;;;3.58;2.38;;;;;;;;;;5018758;28;20186;-83
2022/12/28 02:41:17;;;;;;;5.53;2.80;;;;;;;;;;5040270;28;20123;-84
2022/12/28 02:43:43;;;;;;;7.57;3.00;;;;;;;;;;5025023;28;20029;-84
2022/12/28 02:52:41;;;;;;;4.80;2.42;;;;;;;;;;5045435;28;20744;-83
2022/12/28 02:59:00;;;;;;;6.47;2.70;;;;;;;;;;5032042;28;20509;-84
2022/12/28 03:01:44;;;;;;;5.05;2.63;;;;;;;;;;5039314;28;20033;-84
2022/12/28 03:04:27;;;;;;;6.55;2.30;;;;;;;;;;5046794;28;20040;-83
2022/12/28 03:09:49;;;;;;;4.40;2.08;;;;;;;;;;5039335;28;20036;-83
2022/12/28 03:12:26;;;;;;;5.25;2.30;;;;;;;;;;5028953;28;20020;-82
2022/12/28 03:15:02;;;;;;;7.35;3.22;;;;;;;;;;5047151;28;20028;-83
2022/12/28 03:31:28;;;;;;;6.32;2.15;;;;;;;;;;5045411;28;20086;-83
2022/12/28 03:34:05;;;;;;;5.00;2.30;;;;;;;;;;5036889;28;20517;-83
2022/12/28 03:36:49;;;;;;;5.53;2.20;;;;;;;;;;5029339;28;20021;-83
2022/12/28 03:39:27;;;;;;;6.20;2.10;;;;;;;;;;5046402;28;20059;-84
2022/12/28 03:44:48;;;;;;;5.07;2.47;;;;;;;;;;5041494;28;20644;-83
2022/12/28 03:47:15;;;;;;;3.38;2.05;;;;;;;;;;5046097;28;20079;-84
2022/12/28 03:49:41;;;;;;;5.05;2.13;;;;;;;;;;5021531;28;20053;-83
2022/12/28 03:52:08;;;;;;;9.13;1.98;;;;;;;;;;5044202;28;20129;-84
2022/12/28 03:54:33;;;;;;;7.43;2.40;;;;;;;;;;5045381;28;20434;-83
2022/12/28 03:56:59;;;;;;;4.68;2.15;;;;;;;;;;5040287;28;20486;-83
2022/12/28 03:59:24;;;;;;;6.85;2.20;;;;;;;;;;5046210;28;20033;-84
2022/12/28 04:01:49;;;;;;;7.63;2.00;;;;;;;;;;5037762;28;20037;-83
2022/12/28 04:04:15;;;;;;;4.25;1.88;;;;;;;;;;5028473;28;20067;-83
2022/12/28 04:06:40;;;;;;;6.18;2.05;;;;;;;;;;5028432;28;20033;-83
2022/12/28 04:09:06;;;;;;;5.95;2.13;;;;;;;;;;5028164;28;20299;-83
2022/12/28 04:11:31;;;;;;;7.53;2.42;;;;;;;;;;5045611;28;20032;-83
2022/12/28 04:13:56;;;;;;;5.93;2.40;;;;;;;;;;5046432;28;20029;-84
2022/12/28 04:16:22;;;;;;;5.47;2.60;;;;;;;;;;5042446;28;20068;-79
2022/12/28 04:18:47;;;;;;;6.10;2.30;;;;;;;;;;5044122;28;20025;-83
2022/12/28 04:21:14;;;;;;;4.80;2.42;;;;;;;;;;5022425;28;20395;-83
2022/12/28 04:23:39;;;;;;;6.05;2.15;;;;;;;;;;5046728;28;20630;-83
2022/12/28 04:26:13;;;;;;;7.60;2.72;;;;;;;;;;5028962;28;20033;-84
2022/12/28 04:28:39;;;;;;;3.40;1.98;;;;;;;;;;5035130;28;20091;-81
2022/12/28 04:31:06;;;;;;;7.82;2.33;;;;;;;;;;5031585;28;20102;-83
2022/12/28 04:33:33;;;;;;;4.88;1.88;;;;;;;;;;5050055;28;20069;-83
2022/12/28 04:36:12;;;;;;;3.20;1.63;;;;;;;;;;5028504;28;20033;-83
2022/12/28 04:38:37;;;;;;;5.78;2.17;;;;;;;;;;5044415;28;20060;-83
2022/12/28 04:41:05;;;;;;;2.17;1.42;;;;;;;;;;5049312;28;20228;-83
2022/12/28 04:43:30;;;;;;;2.53;1.80;;;;;;;;;;5032274;28;20032;-83
2022/12/28 04:45:57;;;;;;;4.95;1.73;;;;;;;;;;5029113;28;20029;-83
2022/12/28 04:48:22;;;;;;;7.40;2.00;;;;;;;;;;5024932;28;20044;-83
2022/12/28 04:50:48;;;;;;;6.05;1.75;;;;;;;;;;5030447;28;20017;-83
2022/12/28 04:53:13;;;;;;;4.00;1.95;;;;;;;;;;5029015;28;20091;-82
2022/12/28 04:55:38;;;;;;;2.35;1.48;;;;;;;;;;5039728;28;20029;-84
2022/12/28 04:58:04;;;;;;;5.70;1.73;;;;;;;;;;5041210;28;20045;-83
2022/12/28 05:00:29;;;;;;;5.22;1.83;;;;;;;;;;5048930;28;20108;-83
2022/12/28 05:02:58;;;;;;;2.83;1.73;;;;;;;;;;5032096;28;20040;-83
2022/12/28 05:05:23;;;;;;;3.83;2.20;;;;;;;;;;5031331;28;20032;-83
2022/12/28 05:07:49;;;;;;;5.45;2.05;;;;;;;;;;5025977;28;20041;-83
2022/12/28 05:10:14;;;;;;;4.63;2.40;;;;;;;;;;5040563;28;20036;-83
2022/12/28 05:12:39;;;;;;;8.80;2.25;;;;;;;;;;5048815;28;20486;-83
2022/12/28 05:15:05;;;;;;;4.07;1.90;;;;;;;;;;5048981;28;20028;-84
2022/12/28 05:17:30;;;;;;;3.45;1.75;;;;;;;;;;5049353;28;20049;-83
2022/12/28 05:19:56;;;;;;;3.83;2.08;;;;;;;;;;5048606;28;20052;-83
2022/12/28 05:22:21;;;;;;;5.00;1.95;;;;;;;;;;5031586;28;20033;-83
2022/12/28 05:24:46;;;;;;;5.57;2.03;;;;;;;;;;5048418;28;20028;-84
2022/12/28 05:27:12;;;;;;;9.57;2.35;;;;;;;;;;5030770;28;20029;-84
2022/12/28 05:29:37;;;;;;;2.78;1.52;;;;;;;;;;5049452;28;20156;-84
2022/12/28 05:32:02;;;;;;;4.28;1.75;;;;;;;;;;5031194;28;20063;-83
2022/12/28 05:34:28;;;;;;;6.28;1.83;;;;;;;;;;5048781;28;20043;-84
2022/12/28 05:36:53;;;;;;;4.15;1.98;;;;;;;;;;5029972;28;20061;-84
2022/12/28 05:39:18;;;;;;;3.70;1.67;;;;;;;;;;5020027;28;20025;-81
2022/12/28 05:41:44;;;;;;;5.63;1.90;;;;;;;;;;5046336;28;20144;-84
2022/12/28 05:44:09;;;;;;;4.55;1.80;;;;;;;;;;5048934;28;20043;-84
2022/12/28 05:46:34;;;;;;;9.18;1.75;;;;;;;;;;5033732;28;20030;-82
2022/12/28 05:49:01;;;;;;;4.30;2.20;;;;;;;;;;5029154;28;20600;-83
2022/12/28 05:51:29;;;;;;;8.23;2.80;;;;;;;;;;5047848;28;20033;-84
2022/12/28 05:53:56;;;;;;;4.50;1.98;;;;;;;;;;5046920;28;20020;-84
2022/12/28 05:56:24;;;;;;;3.08;1.98;;;;;;;;;;5026833;28;20068;-83
2022/12/28 05:58:55;;;;;;;4.05;1.73;;;;;;;;;;5020392;28;20069;-83
2022/12/28 06:01:23;;;;;;;4.40;1.90;;;;;;;;;;5027674;28;20052;-84
2022/12/28 06:03:55;;;;;;;4.40;1.80;;;;;;;;;;5039138;28;20165;-83
2022/12/28 06:06:20;;;;;;;6.15;2.20;;;;;;;;;;5054625;28;20041;-84
2022/12/28 06:08:47;;;;;;;4.72;1.48;;;;;;;;;;5029579;28;20078;-84
2022/12/28 06:11:15;;;;;;;7.88;2.08;;;;;;;;;;5046021;28;20036;-83
2022/12/28 06:13:40;;;;;;;6.13;1.75;;;;;;;;;;5048040;28;20029;-83
2022/12/28 06:16:15;;;;;;;3.83;1.45;;;;;;;;;;5047382;28;20083;-84
2022/12/28 06:18:40;;;;;;;4.22;1.75;;;;;;;;;;5047924;28;20052;-83
2022/12/28 06:21:10;;;;;;;4.18;1.75;;;;;;;;;;5036077;28;20056;-83
2022/12/28 06:23:35;;;;;;;3.83;1.42;;;;;;;;;;5028330;28;20140;-84
2022/12/28 06:26:03;;;;;;;5.53;1.90;;;;;;;;;;5048665;28;20163;-84
2022/12/28 06:28:28;;;;;;;3.92;1.52;;;;;;;;;;5027943;28;20029;-84
2022/12/28 06:31:05;;;;;;;3.58;1.50;;;;;;;;;;5030131;28;20627;-84
2022/12/28 06:33:31;;;;;;;4.63;1.85;;;;;;;;;;5050799;28;20029;-83
2022/12/28 06:35:57;;;;;;;4.65;1.30;;;;;;;;;;5054602;28;20032;-84
2022/12/28 06:38:22;;;;;;;2.53;1.60;;;;;;;;;;5042383;28;20040;-84
2022/12/28 06:40:48;;;;;;;7.47;1.70;;;;;;;;;;5039254;28;20041;-84
2022/12/28 06:43:13;;;;;;;2.17;1.40;;;;;;;;;;5046902;28;20101;-83
2022/12/28 06:45:39;;;;;;;2.35;1.48;;;;;;;;;;5029422;28;20041;-83
2022/12/28 06:48:04;;;;;;;2.15;1.30;;;;;;;;;;5029665;28;20112;-83
2022/12/28 06:50:29;;;;;;;3.22;1.13;;;;;;;;;;5046920;28;20379;-84
2022/12/28 06:52:55;;;;;;;4.20;1.45;;;;;;;;;;5027428;28;20041;-84
2022/12/28 06:55:20;;;;;;;5.57;1.65;;;;;;;;;;5029101;28;20087;-84
2022/12/28 06:57:45;;;;;;;3.72;1.63;;;;;;;;;;5028069;28;20124;-84
2022/12/28 07:00:11;;;;;;;4.97;1.85;;;;;;;;;;5028301;28;20671;-84
2022/12/28 07:02:36;;;;;;;7.72;1.60;;;;;;;;;;5046368;28;20079;-84
2022/12/28 07:05:02;;;;;;;4.45;1.60;;;;;;;;;;5046316;28;20029;-84
2022/12/28 07:07:27;;;;;;;4.75;1.60;;;;;;;;;;5046494;28;20083;-84
2022/12/28 07:09:53;;;;;;;3.13;1.40;;;;;;;;;;5034067;28;20036;-83
2022/12/28 07:12:18;;;;;;;4.97;1.40;;;;;;;;;;5020290;28;20057;-83
2022/12/28 07:14:43;;;;;;;3.17;1.80;;;;;;;;;;5036559;28;20024;-83
2022/12/28 07:17:08;;;;;;;5.72;2.10;;;;;;;;;;5037958;28;20449;-81
2022/12/28 07:19:34;;;;;;;8.40;2.10;;;;;;;;;;5025784;28;20063;-83
2022/12/28 07:21:59;;;;;;;5.05;1.60;;;;;;;;;;5016311;28;20128;-84
2022/12/28 07:24:24;;;;;;;8.55;2.10;;;;;;;;;;5035787;28;20044;-84
2022/12/28 07:26:50;;;;;;;3.72;1.63;;;;;;;;;;5045130;28;20469;-84
2022/12/28 07:29:15;;;;;;;3.35;1.60;;;;;;;;;;5047183;28;20048;-84
2022/12/28 07:31:40;;;;;;;6.20;2.00;;;;;;;;;;5023458;28;20520;-84
2022/12/28 07:34:06;;;;;;;7.28;2.00;;;;;;;;;;5027411;28;20702;-84
2022/12/28 07:36:32;;;;;;;10.48;2.58;;;;;;;;;;5044774;28;20048;-84
2022/12/28 07:38:58;;;;;;;6.75;2.20;;;;;;;;;;5012782;28;20044;-83
2022/12/28 07:41:29;;;;;;;2.33;1.67;;;;;;;;;;5035409;28;20041;-85
2022/12/28 07:43:55;;;;;;;4.63;1.65;;;;;;;;;;5020676;28;20044;-82
2022/12/28 07:46:23;;;;;;;3.72;1.90;;;;;;;;;;5038216;28;20047;-85
2022/12/28 07:48:50;;;;;;;3.80;2.00;;;;;;;;;;5029083;28;20903;-85
2022/12/28 07:51:26;;;;;;;6.15;1.90;;;;;;;;;;5028062;28;20035;-85
2022/12/28 07:53:53;;;;;;;8.60;2.00;;;;;;;;;;5028111;28;20108;-85
2022/12/28 07:56:20;;;;;;;4.43;2.13;;;;;;;;;;5027980;28;20029;-84
2022/12/28 07:58:54;;;;;;;5.05;1.80;;;;;;;;;;5017762;28;20053;-82
2022/12/28 08:01:21;;;;;;;5.80;2.58;;;;;;;;;;5024701;28;20453;-84
2022/12/28 08:03:47;;;;;;;4.88;2.10;;;;;;;;;;5025276;28;20033;-84
2022/12/28 08:06:15;;;;;;;10.88;2.25;;;;;;;;;;5043187;28;20056;-84
2022/12/28 08:08:43;;;;;;;5.57;2.17;;;;;;;;;;5026224;28;20681;-84
2022/12/28 08:11:14;;;;;;;9.15;2.22;;;;;;;;;;5032619;28;20036;-83
2022/12/28 08:13:42;;;;;;;11.77;2.40;;;;;;;;;;5044045;28;20037;-84
2022/12/28 08:16:10;;;;;;;8.45;2.10;;;;;;;;;;5043942;28;20041;-84
2022/12/28 08:18:35;;;;;;;6.68;2.25;;;;;;;;;;5044057;28;20196;-83
2022/12/28 08:21:06;;;;;;;3.95;1.88;;;;;;;;;;5044410;28;20047;-84
2022/12/28 08:23:32;;;;;;;7.05;2.25;;;;;;;;;;5027201;28;20063;-84
2022/12/28 08:26:17;;;;;;;6.75;2.40;;;;;;;;;;5045108;28;20049;-84
2022/12/28 08:28:44;;;;;;;5.30;2.15;;;;;;;;;;5022041;28;20589;-84
2022/12/28 08:31:14;;;;;;;6.75;2.58;;;;;;;;;;5018523;28;20546;-84
2022/12/28 08:33:40;;;;;;;4.93;2.90;;;;;;;;;;5044823;28;20037;-84
2022/12/28 08:36:06;;;;;;;9.70;3.45;;;;;;;;;;5027731;28;20032;-84
2022/12/28 08:38:32;;;;;;;6.75;2.78;;;;;;;;;;5045813;28;20020;-84
2022/12/28 08:41:00;;;;;;;10.68;2.50;;;;;;;;;;5045380;28;20029;-85
2022/12/28 08:43:26;;;;;;;3.75;1.60;;;;;;;;;;5042884;28;20083;-84
2022/12/28 08:46:00;;;;;;;5.22;1.90;;;;;;;;;;5043111;28;20025;-84
2022/12/28 08:48:26;;;;;;;4.35;1.65;;;;;;;;;;5044745;28;20036;-84
2022/12/28 08:50:51;;;;;;;6.70;2.20;;;;;;;;;;5027659;28;20021;-84
2022/12/28 08:53:17;;;;;;;8.80;2.00;;;;;;;;;;5023209;28;20033;-83
2022/12/28 08:55:42;;;;;;;6.40;2.20;;;;;;;;;;5022276;28;20049;-83
2022/12/28 08:58:07;;;;;;;5.13;3.10;;;;;;;;;;5020793;28;20057;-84
2022/12/28 09:00:33;;;;;;;5.15;2.35;;;;;;;;;;5042917;28;20033;-84
2022/12/28 09:02:58;;;;;;;6.90;2.10;;;;;;;;;;5044862;28;20057;-84
2022/12/28 09:05:24;;;;;;;3.83;2.42;;;;;;;;;;5043950;28;20025;-84
2022/12/28 09:07:50;;;;;;;7.07;2.13;;;;;;;;;;5044581;28;20120;-83
2022/12/28 09:10:16;;;;;;;10.07;2.40;;;;;;;;;;5026076;28;20033;-84
2022/12/28 09:12:41;;;;;;;4.32;2.03;;;;;;;;;;5045492;28;20029;-84
2022/12/28 09:15:07;;;;;;;5.50;2.15;;;;;;;;;;5026571;28;20028;-84
2022/12/28 09:17:33;;;;;;;5.13;2.20;;;;;;;;;;5028442;28;20516;-83
2022/12/28 09:19:58;;;;;;;10.57;2.55;;;;;;;;;;5047941;28;20132;-84
2022/12/28 09:22:23;;;;;;;3.45;1.75;;;;;;;;;;5030041;28;20037;-83
2022/12/28 09:24:49;;;;;;;4.75;2.13;;;;;;;;;;5030001;28;20032;-83
2022/12/28 09:27:14;;;;;;;5.30;1.77;;;;;;;;;;5048673;28;20025;-82
2022/12/28 09:29:39;;;;;;;3.53;1.90;;;;;;;;;;5030132;28;20025;-83
2022/12/28 09:32:04;;;;;;;7.15;2.20;;;;;;;;;;5030330;28;20055;-84
2022/12/28 09:34:30;;;;;;;6.50;2.33;;;;;;;;;;5045152;28;20470;-83
2022/12/28 09:36:56;;;;;;;5.50;2.17;;;;;;;;;;5028286;28;20398;-82
2022/12/28 09:39:23;;;;;;;5.95;2.20;;;;;;;;;;5015256;28;20048;-83
2022/12/28 09:41:58;;;;;;;5.28;2.22;;;;;;;;;;5041006;28;20025;-85
2022/12/28 09:44:33;;;;;;;3.83;2.00;;;;;;;;;;5039035;28;20041;-84
2022/12/28 09:47:36;;;;;;;7.57;2.20;;;;;;;;;;5046840;28;20749;-84
2022/12/28 09:50:24;;;;;;;6.07;2.50;;;;;;;;;;5026937;28;20408;-84
2022/12/28 09:53:18;;;;;;;3.00;1.60;;;;;;;;;;5033894;28;20271;-84
2022/12/28 09:55:57;;;;;;;7.75;2.20;;;;;;;;;;5035095;28;20033;-84
2022/12/28 09:58:22;;;;;;;4.55;1.98;;;;;;;;;;5021560;28;20569;-84
2022/12/28 10:00:51;;;;;;;4.13;1.95;;;;;;;;;;5024612;28;20021;-82
2022/12/28 10:03:30;;;;;;;2.70;1.52;;;;;;;;;;5037094;28;20025;-83
2022/12/28 10:05:57;;;;;;;5.32;2.00;;;;;;;;;;5028537;28;20465;-81
2022/12/28 10:08:24;;;;;;;5.00;1.90;;;;;;;;;;5027066;28;20120;-80
2022/12/28 10:10:51;;;;;;;5.35;1.90;;;;;;;;;;5038936;28;20106;-81
2022/12/28 10:13:21;;;;;;;3.55;1.95;;;;;;;;;;5025459;28;20122;-83
2022/12/28 10:15:47;;;;;;;4.22;1.88;;;;;;;;;;5028351;28;20029;-83
2022/12/28 10:18:14;;;;;;;4.85;1.92;;;;;;;;;;5030423;28;20047;-83
2022/12/28 10:20:42;;;;;;;3.70;2.03;;;;;;;;;;5048419;28;20072;-83
2022/12/28 10:23:13;;;;;;;5.43;2.30;;;;;;;;;;5028890;28;20033;-83
2022/12/28 10:25:38;;;;;;;5.50;2.03;;;;;;;;;;5048061;28;20033;-82
2022/12/28 10:28:09;;;;;;;9.77;2.65;;;;;;;;;;5028713;28;20094;-82
2022/12/28 10:30:46;;;;;;;3.25;1.45;;;;;;;;;;5046865;28;20033;-83
2022/12/28 10:33:18;;;;;;;6.55;2.17;;;;;;;;;;5029043;28;20512;-83
2022/12/28 10:35:52;;;;;;;3.63;1.90;;;;;;;;;;5029471;28;20047;-83
2022/12/28 10:38:37;;;;;;;9.25;2.58;;;;;;;;;;5039224;28;20040;-81
2022/12/28 10:41:06;;;;;;;6.20;1.77;;;;;;;;;;5040278;28;20025;-83
2022/12/28 10:43:34;;;;;;;6.43;2.28;;;;;;;;;;5041205;28;20043;-83
2022/12/28 10:46:01;;;;;;;4.78;1.83;;;;;;;;;;5064284;28;20024;-83
2022/12/28 10:48:30;;;;;;;4.78;1.88;;;;;;;;;;5049144;28;20458;-83
2022/12/28 10:51:13;;;;;;;6.70;2.03;;;;;;;;;;5034796;28;20018;-82
2022/12/28 10:53:38;;;;;;;4.10;1.83;;;;;;;;;;5041739;28;20056;-83
2022/12/28 10:56:09;;;;;;;5.07;2.40;;;;;;;;;;5029833;28;20081;-83
2022/12/28 10:58:35;;;;;;;5.45;2.00;;;;;;;;;;5043954;28;20106;-83
2022/12/28 11:01:15;;;;;;;7.10;2.33;;;;;;;;;;5043848;28;20445;-83
2022/12/28 11:03:44;;;;;;;3.20;1.75;;;;;;;;;;5037255;28;20048;-83
2022/12/28 11:06:22;;;;;;;4.35;1.27;;;;;;;;;;5035374;28;20575;-83
2022/12/28 11:08:59;;;;;;;3.63;1.75;;;;;;;;;;5046434;28;20489;-83
2022/12/28 11:11:24;;;;;;;10.18;2.38;;;;;;;;;;5024784;28;20549;-83
2022/12/28 11:14:01;;;;;;;6.95;2.30;;;;;;;;;;5039427;28;20490;-83
2022/12/28 11:16:38;;;;;;;5.43;1.98;;;;;;;;;;5027596;28;20033;-83
2022/12/28 11:19:04;;;;;;;6.65;2.30;;;;;;;;;;5027634;28;20052;-83
2022/12/28 11:21:30;;;;;;;3.90;2.20;;;;;;;;;;5038196;28;20053;-83
2022/12/28 11:23:56;;;;;;;4.80;2.40;;;;;;;;;;5037102;28;20040;-84
2022/12/28 11:26:21;;;;;;;6.72;1.90;;;;;;;;;;5015267;28;20133;-83
2022/12/28 11:28:50;;;;;;;8.85;2.38;;;;;;;;;;5036632;28;20115;-81
2022/12/28 11:31:31;;;;;;;5.07;1.63;;;;;;;;;;5026844;28;20048;-83
2022/12/28 11:34:02;;;;;;;2.28;1.60;;;;;;;;;;5039094;28;20056;-81
2022/12/28 11:36:29;;;;;;;6.15;1.48;;;;;;;;;;5037709;28;20025;-83
2022/12/28 11:38:55;;;;;;;4.20;1.98;;;;;;;;;;5044430;28;20532;-83
2022/12/28 11:41:23;;;;;;;5.13;2.10;;;;;;;;;;5024326;28;20546;-83
2022/12/28 11:43:49;;;;;;;6.00;2.20;;;;;;;;;;5043936;28;20059;-84
2022/12/28 11:46:20;;;;;;;3.55;1.77;;;;;;;;;;5027714;28;20493;-83
2022/12/28 11:48:56;;;;;;;4.95;1.60;;;;;;;;;;5036703;28;20052;-83
2022/12/28 11:51:33;;;;;;;7.65;1.85;;;;;;;;;;5031732;28;20612;-83
2022/12/28 11:54:21;;;;;;;3.47;1.60;;;;;;;;;;5043904;28;20421;-83
2022/12/28 11:56:46;;;;;;;5.88;1.95;;;;;;;;;;5024134;28;20041;-83
2022/12/28 11:59:31;;;;;;;5.97;1.70;;;;;;;;;;5028335;28;20064;-83
2022/12/28 12:01:57;;;;;;;5.10;1.60;;;;;;;;;;5026522;28;20044;-83
2022/12/28 12:04:27;;;;;;;7.07;2.00;;;;;;;;;;5036096;28;20044;-83
2022/12/28 12:06:53;;;;;;;3.75;1.65;;;;;;;;;;5032535;28;20525;-84
2022/12/28 12:09:24;;;;;;;4.07;1.80;;;;;;;;;;5027124;28;20029;-83
2022/12/28 12:12:02;;;;;;;3.22;2.08;;;;;;;;;;5039908;28;20553;-83
2022/12/28 12:14:39;;;;;;;5.43;2.40;;;;;;;;;;5028509;28;20045;-84
2022/12/28 12:17:20;;;;;;;6.45;3.45;;;;;;;;;;5021715;28;20068;-83
2022/12/28 12:19:48;;;;;;;6.65;1.80;;;;;;;;;;5045269;28;20053;-84
2022/12/28 12:22:24;;;;;;;18.88;4.47;;;;;;;;;;5021314;28;20075;-84
2022/12/28 12:24:56;;;;;;;14.95;4.53;;;;;;;;;;5031925;28;20138;-84
2022/12/28 12:27:25;;;;;;;7.63;2.50;;;;;;;;;;5045175;28;20032;-83
2022/12/28 12:29:55;;;;;;;5.88;1.80;;;;;;;;;;5030852;28;20055;-84
2022/12/28 12:32:45;;;;;;;7.68;2.60;;;;;;;;;;5026181;28;20617;-84
2022/12/28 12:35:17;;;;;;;4.95;2.03;;;;;;;;;;5037427;28;20045;-84
2022/12/28 12:38:17;;;;;;;4.13;2.20;;;;;;;;;;5040717;28;20120;-84
2022/12/28 12:41:09;;;;;;;6.32;2.30;;;;;;;;;;5008883;28;20080;-83
2022/12/28 12:44:00;;;;;;;4.18;2.03;;;;;;;;;;5025411;28;20033;-84
2022/12/28 12:46:28;;;;;;;2.35;1.50;;;;;;;;;;5036020;28;20060;-83
2022/12/28 12:49:32;;;;;;;3.72;1.90;;;;;;;;;;5043216;28;20033;-84
2022/12/28 12:52:21;;;;;;;3.30;1.90;;;;;;;;;;5030092;28;20033;-84
2022/12/28 12:54:59;;;;;;;4.10;1.30;;;;;;;;;;5044279;28;20039;-84
2022/12/28 12:57:34;;;;;;;4.32;1.83;;;;;;;;;;5034175;28;20503;-83
2022/12/28 13:00:15;;;;;;;7.00;1.60;;;;;;;;;;5045915;28;20033;-83
2022/12/28 13:02:57;;;;;;;5.75;1.58;;;;;;;;;;5024869;28;20116;-83
2022/12/28 13:05:27;;;;;;;2.35;1.15;;;;;;;;;;5039153;28;20045;-83
2022/12/28 13:07:55;;;;;;;9.43;2.10;;;;;;;;;;5017256;28;20033;-81
2022/12/28 13:10:39;;;;;;;6.18;1.73;;;;;;;;;;5044493;28;20056;-82
2022/12/28 13:13:04;;;;;;;;;;;;;;;;;;5023371;28;20144;-82
2022/12/28 13:15:30;;;;;;;3.97;1.80;;;;;;;;;;5021384;28;20050;-82
2022/12/28 13:18:05;;;;;;;2.00;1.08;;;;;;;;;;5015369;28;20037;-81
2022/12/28 13:20:31;;;;;;;7.05;1.35;;;;;;;;;;5039400;28;20052;-82
2022/12/28 13:22:56;;;;;;;3.50;1.45;;;;;;;;;;5039548;28;20044;-81
2022/12/28 13:25:26;;;;;;;2.85;1.60;;;;;;;;;;5026119;28;20364;-82
2022/12/28 13:27:52;;;;;;;4.68;1.30;;;;;;;;;;5045314;28;20047;-82
2022/12/28 13:30:19;;;;;;;3.97;1.38;;;;;;;;;;5029401;28;20148;-82
2022/12/28 13:32:56;;;;;;;2.15;1.55;;;;;;;;;;5028853;28;20471;-81
2022/12/28 13:35:28;;;;;;;4.43;1.60;;;;;;;;;;5047199;28;20044;-82
2022/12/28 13:38:12;;;;;;;3.60;1.33;;;;;;;;;;5047285;28;20033;-81
2022/12/28 13:40:39;;;;;;;5.50;1.77;;;;;;;;;;5046393;28;20044;-82
2022/12/28 13:43:17;;;;;;;3.47;1.65;;;;;;;;;;5027622;28;20057;-80
2022/12/28 13:45:43;;;;;;;2.70;1.50;;;;;;;;;;5036802;28;21034;-82
2022/12/28 13:48:08;;;;;;;4.85;1.65;;;;;;;;;;5043306;28;20040;-82
2022/12/28 13:50:38;;;;;;;15.02;3.55;;;;;;;;;;5029405;28;20029;-82
2022/12/28 13:53:19;;;;;;;13.30;4.75;;;;;;;;;;5045216;28;20029;-81
2022/12/28 13:56:13;;;;;;;12.88;4.53;;;;;;;;;;5037475;28;20124;-79
2022/12/28 13:58:47;;;;;;;8.13;3.10;;;;;;;;;;5041060;28;20037;-80
2022/12/28 14:01:16;;;;;;;8.82;3.33;;;;;;;;;;5029385;28;20102;-80
2022/12/28 14:03:42;;;;;;;11.98;4.22;;;;;;;;;;5047443;28;20028;-80
2022/12/28 14:06:09;;;;;;;2.90;1.40;;;;;;;;;;5029808;28;20029;-80
2022/12/28 14:08:37;;;;;;;5.55;2.33;;;;;;;;;;5044253;28;20506;-80
2022/12/28 14:11:04;;;;;;;4.70;1.90;;;;;;;;;;5046607;28;20043;-80
2022/12/28 14:13:31;;;;;;;7.38;2.60;;;;;;;;;;5046535;28;20040;-80
2022/12/28 14:15:58;;;;;;;5.05;2.25;;;;;;;;;;5029518;28;20060;-78
2022/12/28 14:18:24;;;;;;;6.68;1.90;;;;;;;;;;5045111;28;20021;-78
2022/12/28 14:20:52;;;;;;;4.43;2.35;;;;;;;;;;5024609;28;20059;-79
2022/12/28 14:23:38;;;;;;;2.72;1.38;;;;;;;;;;5043702;28;20489;-79
2022/12/28 14:26:08;;;;;;;5.30;1.60;;;;;;;;;;5036274;28;20025;-79
2022/12/28 14:28:35;;;;;;;3.60;1.52;;;;;;;;;;5024548;28;20409;-80
2022/12/28 14:31:03;;;;;;;4.15;1.80;;;;;;;;;;5020062;28;20048;-79
2022/12/28 14:33:33;;;;;;;5.13;1.80;;;;;;;;;;5045195;28;20718;-79
2022/12/28 14:36:01;;;;;;;3.13;1.60;;;;;;;;;;5028855;28;20122;-80
2022/12/28 14:38:32;;;;;;;4.53;1.73;;;;;;;;;;5044034;28;20025;-79
2022/12/28 14:41:00;;;;;;;2.75;1.95;;;;;;;;;;5022406;28;20045;-79
2022/12/28 14:43:34;;;;;;;6.32;2.13;;;;;;;;;;5039745;28;20175;-80
2022/12/28 14:46:25;;;;;;;11.23;2.15;;;;;;;;;;5028756;28;20059;-80
2022/12/28 14:48:50;;;;;;;3.17;1.95;;;;;;;;;;5045694;28;20056;-80
2022/12/28 14:51:19;;;;;;;3.72;2.00;;;;;;;;;;5046969;28;20021;-80
2022/12/28 14:54:02;;;;;;;5.82;2.20;;;;;;;;;;5059044;28;20041;-80
2022/12/28 14:56:33;;;;;;;4.28;2.00;;;;;;;;;;5061491;28;20043;-80
2022/12/28 14:59:00;;;;;;;2.95;1.58;;;;;;;;;;5045452;28;20025;-80
2022/12/28 15:01:43;;;;;;;4.55;1.98;;;;;;;;;;5045911;28;20094;-80
2022/12/28 15:04:24;;;;;;;3.43;1.57;;;;;;;;;;5046532;28;20159;-80
2022/12/28 15:06:49;;;;;;;7.60;1.50;;;;;;;;;;5045368;28;20497;-80
2022/12/28 15:09:16;;;;;;;2.85;1.27;;;;;;;;;;5028359;28;20056;-80
2022/12/28 15:11:43;;;;;;;2.20;1.30;;;;;;;;;;5028225;28;20029;-80
2022/12/28 15:14:09;;;;;;;1.83;1.20;;;;;;;;;;5044418;28;20502;-80
2022/12/28 15:16:36;;;;;;;2.90;1.42;;;;;;;;;;5026539;28;20040;-80
2022/12/28 15:19:02;;;;;;;3.55;1.58;;;;;;;;;;5027040;28;20037;-80
2022/12/28 15:21:27;;;;;;;2.97;1.30;;;;;;;;;;5044477;28;20031;-80
2022/12/28 15:23:54;;;;;;;2.83;1.80;;;;;;;;;;5028078;28;20096;-80
2022/12/28 15:26:22;;;;;;;8.27;2.08;;;;;;;;;;5027691;28;20032;-80
2022/12/28 15:28:47;;;;;;;2.30;1.25;;;;;;;;;;5046091;28;20025;-80